sensor_id;sensor_type;location;lat;lon;timestamp;P1;durP1;ratioP1;P2;durP2;ratioP2
23080;SDS011;11708;50.570;8.532;2022-08-01T00:02:15;2.85;;;1.83;;
23080;SDS011;11708;50.570;8.532;2022-08-01T00:04:41;3.80;;;1.80;;
23080;SDS011;11708;50.570;8.532;2022-08-01T00:07:07;3.67;;;2.05;;
23080;SDS011;11708;50.570;8.532;2022-08-01T00:09:32;3.92;;;1.95;;
23080;SDS011;11708;50.570;8.532;2022-08-01T00:11:58;4.75;;;2.20;;
23080;SDS011;11708;50.570;8.532;2022-08-01T00:14:23;2.33;;;1.98;;
23080;SDS011;11708;50.570;8.532;2022-08-01T00:16:49;2.90;;;2.40;;
23080;SDS011;11708;50.570;8.532;2022-08-01T00:19:14;2.88;;;2.25;;
23080;SDS011;11708;50.570;8.532;2022-08-01T00:21:40;2.80;;;2.60;;
23080;SDS011;11708;50.570;8.532;2022-08-01T00:24:06;2.90;;;2.60;;
23080;SDS011;11708;50.570;8.532;2022-08-01T00:26:31;3.08;;;2.75;;
23080;SDS011;11708;50.570;8.532;2022-08-01T00:28:57;3.30;;;2.95;;
23080;SDS011;11708;50.570;8.532;2022-08-01T00:31:23;4.28;;;3.78;;
23080;SDS011;11708;50.570;8.532;2022-08-01T00:33:49;3.78;;;3.22;;
23080;SDS011;11708;50.570;8.532;2022-08-01T00:36:15;5.38;;;3.33;;
23080;SDS011;11708;50.570;8.532;2022-08-01T00:38:40;3.60;;;3.30;;
23080;SDS011;11708;50.570;8.532;2022-08-01T00:41:06;3.72;;;3.40;;
23080;SDS011;11708;50.570;8.532;2022-08-01T00:43:31;4.65;;;3.58;;
23080;SDS011;11708;50.570;8.532;2022-08-01T00:45:57;3.90;;;3.30;;
23080;SDS011;11708;50.570;8.532;2022-08-01T00:48:22;3.95;;;3.47;;
23080;SDS011;11708;50.570;8.532;2022-08-01T00:50:48;4.32;;;3.25;;
23080;SDS011;11708;50.570;8.532;2022-08-01T00:53:14;5.10;;;3.42;;
23080;SDS011;11708;50.570;8.532;2022-08-01T00:55:40;6.15;;;3.67;;
23080;SDS011;11708;50.570;8.532;2022-08-01T00:58:05;6.57;;;3.83;;
23080;SDS011;11708;50.570;8.532;2022-08-01T01:00:31;5.00;;;3.72;;
23080;SDS011;11708;50.570;8.532;2022-08-01T01:02:58;4.30;;;3.83;;
23080;SDS011;11708;50.570;8.532;2022-08-01T01:05:24;4.30;;;3.90;;
23080;SDS011;11708;50.570;8.532;2022-08-01T01:10:32;4.15;;;3.85;;
23080;SDS011;11708;50.570;8.532;2022-08-01T01:13:23;5.78;;;3.65;;
23080;SDS011;11708;50.570;8.532;2022-08-01T01:16:00;4.22;;;3.20;;
23080;SDS011;11708;50.570;8.532;2022-08-01T01:18:34;4.25;;;3.20;;
23080;SDS011;11708;50.570;8.532;2022-08-01T01:21:07;4.35;;;2.75;;
23080;SDS011;11708;50.570;8.532;2022-08-01T01:23:49;2.88;;;2.60;;
23080;SDS011;11708;50.570;8.532;2022-08-01T01:26:40;4.25;;;3.00;;
23080;SDS011;11708;50.570;8.532;2022-08-01T01:29:21;4.35;;;2.85;;
23080;SDS011;11708;50.570;8.532;2022-08-01T01:32:05;4.68;;;2.97;;
23080;SDS011;11708;50.570;8.532;2022-08-01T01:34:43;3.65;;;3.35;;
23080;SDS011;11708;50.570;8.532;2022-08-01T01:37:12;3.33;;;3.05;;
23080;SDS011;11708;50.570;8.532;2022-08-01T01:39:42;5.05;;;4.50;;
23080;SDS011;11708;50.570;8.532;2022-08-01T01:42:09;5.63;;;4.85;;
23080;SDS011;11708;50.570;8.532;2022-08-01T01:44:35;6.20;;;5.60;;
23080;SDS011;11708;50.570;8.532;2022-08-01T01:47:03;6.30;;;4.70;;
23080;SDS011;11708;50.570;8.532;2022-08-01T01:49:29;4.53;;;3.88;;
23080;SDS011;11708;50.570;8.532;2022-08-01T01:51:57;4.63;;;3.03;;
23080;SDS011;11708;50.570;8.532;2022-08-01T01:54:24;5.15;;;2.55;;
23080;SDS011;11708;50.570;8.532;2022-08-01T01:56:55;4.50;;;2.67;;
23080;SDS011;11708;50.570;8.532;2022-08-01T01:59:25;4.85;;;2.50;;
23080;SDS011;11708;50.570;8.532;2022-08-01T02:01:53;5.88;;;2.70;;
23080;SDS011;11708;50.570;8.532;2022-08-01T02:04:22;3.80;;;3.05;;
23080;SDS011;11708;50.570;8.532;2022-08-01T02:06:50;3.08;;;2.78;;
23080;SDS011;11708;50.570;8.532;2022-08-01T02:09:18;3.65;;;3.15;;
23080;SDS011;11708;50.570;8.532;2022-08-01T02:11:48;4.13;;;2.95;;
23080;SDS011;11708;50.570;8.532;2022-08-01T02:14:17;5.32;;;3.22;;
23080;SDS011;11708;50.570;8.532;2022-08-01T02:16:45;3.50;;;3.20;;
23080;SDS011;11708;50.570;8.532;2022-08-01T02:19:14;4.30;;;3.13;;
23080;SDS011;11708;50.570;8.532;2022-08-01T02:21:49;3.60;;;3.30;;
23080;SDS011;11708;50.570;8.532;2022-08-01T02:24:31;4.55;;;3.10;;
23080;SDS011;11708;50.570;8.532;2022-08-01T02:30:26;3.97;;;3.58;;
23080;SDS011;11708;50.570;8.532;2022-08-01T02:32:58;5.85;;;3.30;;
23080;SDS011;11708;50.570;8.532;2022-08-01T02:35:28;3.70;;;3.40;;
23080;SDS011;11708;50.570;8.532;2022-08-01T02:37:57;3.70;;;3.40;;
23080;SDS011;11708;50.570;8.532;2022-08-01T02:40:26;4.32;;;3.58;;
23080;SDS011;11708;50.570;8.532;2022-08-01T02:42:53;3.80;;;3.50;;
23080;SDS011;11708;50.570;8.532;2022-08-01T02:45:22;3.88;;;3.58;;
23080;SDS011;11708;50.570;8.532;2022-08-01T02:47:50;4.63;;;3.80;;
23080;SDS011;11708;50.570;8.532;2022-08-01T02:50:18;6.05;;;4.00;;
23080;SDS011;11708;50.570;8.532;2022-08-01T02:52:48;4.25;;;3.85;;
23080;SDS011;11708;50.570;8.532;2022-08-01T02:55:16;6.22;;;4.20;;
23080;SDS011;11708;50.570;8.532;2022-08-01T02:57:44;6.32;;;4.45;;
23080;SDS011;11708;50.570;8.532;2022-08-01T03:00:13;4.43;;;4.03;;
23080;SDS011;11708;50.570;8.532;2022-08-01T03:02:40;4.50;;;4.10;;
23080;SDS011;11708;50.570;8.532;2022-08-01T03:05:08;4.00;;;3.70;;
23080;SDS011;11708;50.570;8.532;2022-08-01T03:07:36;7.15;;;4.40;;
23080;SDS011;11708;50.570;8.532;2022-08-01T03:10:04;4.93;;;3.95;;
23080;SDS011;11708;50.570;8.532;2022-08-01T03:12:30;4.28;;;3.88;;
23080;SDS011;11708;50.570;8.532;2022-08-01T03:14:58;4.45;;;4.03;;
23080;SDS011;11708;50.570;8.532;2022-08-01T03:17:27;4.80;;;3.63;;
23080;SDS011;11708;50.570;8.532;2022-08-01T03:19:53;7.55;;;3.90;;
23080;SDS011;11708;50.570;8.532;2022-08-01T03:22:21;5.53;;;4.55;;
23080;SDS011;11708;50.570;8.532;2022-08-01T03:24:49;5.70;;;3.72;;
23080;SDS011;11708;50.570;8.532;2022-08-01T03:27:18;4.88;;;3.80;;
23080;SDS011;11708;50.570;8.532;2022-08-01T03:29:46;5.57;;;4.00;;
23080;SDS011;11708;50.570;8.532;2022-08-01T03:32:14;5.78;;;3.72;;
23080;SDS011;11708;50.570;8.532;2022-08-01T03:34:41;6.65;;;3.85;;
23080;SDS011;11708;50.570;8.532;2022-08-01T03:37:12;8.02;;;4.05;;
23080;SDS011;11708;50.570;8.532;2022-08-01T03:39:47;4.03;;;3.65;;
23080;SDS011;11708;50.570;8.532;2022-08-01T03:42:19;5.13;;;3.60;;
23080;SDS011;11708;50.570;8.532;2022-08-01T03:44:51;5.18;;;3.85;;
23080;SDS011;11708;50.570;8.532;2022-08-01T03:47:19;4.38;;;3.38;;
23080;SDS011;11708;50.570;8.532;2022-08-01T03:49:50;4.32;;;3.65;;
23080;SDS011;11708;50.570;8.532;2022-08-01T03:52:17;3.70;;;3.33;;
23080;SDS011;11708;50.570;8.532;2022-08-01T03:54:46;3.40;;;3.10;;
23080;SDS011;11708;50.570;8.532;2022-08-01T03:57:15;6.00;;;3.05;;
23080;SDS011;11708;50.570;8.532;2022-08-01T03:59:42;5.55;;;3.10;;
23080;SDS011;11708;50.570;8.532;2022-08-01T04:02:08;4.35;;;3.75;;
23080;SDS011;11708;50.570;8.532;2022-08-01T04:04:34;5.47;;;3.50;;
23080;SDS011;11708;50.570;8.532;2022-08-01T04:07:00;4.97;;;3.22;;
23080;SDS011;11708;50.570;8.532;2022-08-01T04:09:31;4.43;;;3.60;;
23080;SDS011;11708;50.570;8.532;2022-08-01T04:11:58;6.47;;;4.30;;
23080;SDS011;11708;50.570;8.532;2022-08-01T04:14:25;4.80;;;4.40;;
23080;SDS011;11708;50.570;8.532;2022-08-01T04:16:51;6.43;;;4.95;;
23080;SDS011;11708;50.570;8.532;2022-08-01T04:19:16;6.95;;;4.47;;
23080;SDS011;11708;50.570;8.532;2022-08-01T04:21:42;7.55;;;4.60;;
23080;SDS011;11708;50.570;8.532;2022-08-01T04:24:12;6.80;;;4.65;;
23080;SDS011;11708;50.570;8.532;2022-08-01T04:26:39;5.35;;;4.47;;
23080;SDS011;11708;50.570;8.532;2022-08-01T04:29:07;5.60;;;4.53;;
23080;SDS011;11708;50.570;8.532;2022-08-01T04:31:34;6.15;;;5.18;;
23080;SDS011;11708;50.570;8.532;2022-08-01T04:34:01;5.40;;;4.78;;
23080;SDS011;11708;50.570;8.532;2022-08-01T04:36:30;6.40;;;4.63;;
23080;SDS011;11708;50.570;8.532;2022-08-01T04:39:00;5.85;;;4.80;;
23080;SDS011;11708;50.570;8.532;2022-08-01T04:41:27;7.20;;;5.35;;
23080;SDS011;11708;50.570;8.532;2022-08-01T04:43:54;7.53;;;5.63;;
23080;SDS011;11708;50.570;8.532;2022-08-01T04:46:24;6.40;;;5.07;;
23080;SDS011;11708;50.570;8.532;2022-08-01T04:48:49;8.40;;;5.78;;
23080;SDS011;11708;50.570;8.532;2022-08-01T04:51:16;5.78;;;5.18;;
23080;SDS011;11708;50.570;8.532;2022-08-01T04:53:43;6.57;;;5.95;;
23080;SDS011;11708;50.570;8.532;2022-08-01T04:56:10;6.45;;;5.85;;
23080;SDS011;11708;50.570;8.532;2022-08-01T04:58:38;7.50;;;5.80;;
23080;SDS011;11708;50.570;8.532;2022-08-01T05:01:04;6.38;;;5.22;;
23080;SDS011;11708;50.570;8.532;2022-08-01T05:03:30;6.13;;;5.53;;
23080;SDS011;11708;50.570;8.532;2022-08-01T05:05:56;6.20;;;5.35;;
23080;SDS011;11708;50.570;8.532;2022-08-01T05:08:21;6.43;;;5.60;;
23080;SDS011;11708;50.570;8.532;2022-08-01T05:10:47;6.40;;;5.60;;
23080;SDS011;11708;50.570;8.532;2022-08-01T05:13:12;8.13;;;6.05;;
23080;SDS011;11708;50.570;8.532;2022-08-01T05:15:38;7.03;;;6.03;;
23080;SDS011;11708;50.570;8.532;2022-08-01T05:18:04;6.90;;;6.20;;
23080;SDS011;11708;50.570;8.532;2022-08-01T05:20:29;7.60;;;6.35;;
23080;SDS011;11708;50.570;8.532;2022-08-01T05:22:55;9.43;;;6.85;;
23080;SDS011;11708;50.570;8.532;2022-08-01T05:25:20;8.25;;;7.05;;
23080;SDS011;11708;50.570;8.532;2022-08-01T05:27:46;9.98;;;6.93;;
23080;SDS011;11708;50.570;8.532;2022-08-01T05:30:12;9.38;;;7.32;;
23080;SDS011;11708;50.570;8.532;2022-08-01T05:32:37;9.85;;;7.28;;
23080;SDS011;11708;50.570;8.532;2022-08-01T05:35:04;8.20;;;6.82;;
23080;SDS011;11708;50.570;8.532;2022-08-01T05:37:30;8.30;;;7.20;;
23080;SDS011;11708;50.570;8.532;2022-08-01T05:39:55;9.52;;;7.22;;
23080;SDS011;11708;50.570;8.532;2022-08-01T05:42:21;8.95;;;8.05;;
23080;SDS011;11708;50.570;8.532;2022-08-01T05:44:46;8.55;;;7.53;;
23080;SDS011;11708;50.570;8.532;2022-08-01T05:47:12;10.23;;;8.50;;
23080;SDS011;11708;50.570;8.532;2022-08-01T05:49:38;11.68;;;7.88;;
23080;SDS011;11708;50.570;8.532;2022-08-01T05:52:04;9.82;;;8.40;;
23080;SDS011;11708;50.570;8.532;2022-08-01T05:54:30;9.70;;;7.65;;
23080;SDS011;11708;50.570;8.532;2022-08-01T05:56:55;11.57;;;7.80;;
23080;SDS011;11708;50.570;8.532;2022-08-01T05:59:24;10.00;;;7.72;;
23080;SDS011;11708;50.570;8.532;2022-08-01T06:01:50;11.57;;;8.00;;
23080;SDS011;11708;50.570;8.532;2022-08-01T06:04:16;8.77;;;7.63;;
23080;SDS011;11708;50.570;8.532;2022-08-01T06:06:41;16.27;;;7.88;;
23080;SDS011;11708;50.570;8.532;2022-08-01T06:09:07;14.48;;;8.00;;
23080;SDS011;11708;50.570;8.532;2022-08-01T06:11:33;10.05;;;8.25;;
23080;SDS011;11708;50.570;8.532;2022-08-01T06:13:58;10.60;;;7.85;;
23080;SDS011;11708;50.570;8.532;2022-08-01T06:16:24;10.73;;;7.15;;
23080;SDS011;11708;50.570;8.532;2022-08-01T06:18:49;11.80;;;7.93;;
23080;SDS011;11708;50.570;8.532;2022-08-01T06:21:15;10.48;;;7.63;;
23080;SDS011;11708;50.570;8.532;2022-08-01T06:23:40;7.78;;;6.97;;
23080;SDS011;11708;50.570;8.532;2022-08-01T06:26:07;8.95;;;7.35;;
23080;SDS011;11708;50.570;8.532;2022-08-01T06:28:33;10.38;;;7.03;;
23080;SDS011;11708;50.570;8.532;2022-08-01T06:30:58;9.80;;;7.75;;
23080;SDS011;11708;50.570;8.532;2022-08-01T06:33:24;8.90;;;7.22;;
23080;SDS011;11708;50.570;8.532;2022-08-01T06:35:50;7.20;;;6.53;;
23080;SDS011;11708;50.570;8.532;2022-08-01T06:38:16;7.53;;;6.72;;
23080;SDS011;11708;50.570;8.532;2022-08-01T06:40:42;8.68;;;7.03;;
23080;SDS011;11708;50.570;8.532;2022-08-01T06:43:07;7.05;;;6.30;;
23080;SDS011;11708;50.570;8.532;2022-08-01T06:45:33;11.55;;;7.78;;
23080;SDS011;11708;50.570;8.532;2022-08-01T06:47:58;7.90;;;7.03;;
23080;SDS011;11708;50.570;8.532;2022-08-01T06:50:24;8.68;;;7.78;;
23080;SDS011;11708;50.570;8.532;2022-08-01T06:52:51;10.65;;;7.07;;
23080;SDS011;11708;50.570;8.532;2022-08-01T06:55:17;9.35;;;8.07;;
23080;SDS011;11708;50.570;8.532;2022-08-01T06:57:45;8.65;;;7.53;;
23080;SDS011;11708;50.570;8.532;2022-08-01T07:00:15;12.27;;;7.90;;
23080;SDS011;11708;50.570;8.532;2022-08-01T07:02:43;9.30;;;8.25;;
23080;SDS011;11708;50.570;8.532;2022-08-01T07:05:09;12.23;;;7.63;;
23080;SDS011;11708;50.570;8.532;2022-08-01T07:07:35;10.23;;;8.60;;
23080;SDS011;11708;50.570;8.532;2022-08-01T07:10:00;12.70;;;8.23;;
23080;SDS011;11708;50.570;8.532;2022-08-01T07:12:26;11.65;;;8.50;;
23080;SDS011;11708;50.570;8.532;2022-08-01T07:14:51;9.73;;;8.20;;
23080;SDS011;11708;50.570;8.532;2022-08-01T07:17:17;10.75;;;8.50;;
23080;SDS011;11708;50.570;8.532;2022-08-01T07:19:45;10.05;;;8.45;;
23080;SDS011;11708;50.570;8.532;2022-08-01T07:22:12;9.00;;;7.97;;
23080;SDS011;11708;50.570;8.532;2022-08-01T07:24:39;13.70;;;9.65;;
23080;SDS011;11708;50.570;8.532;2022-08-01T07:27:06;11.43;;;8.65;;
23080;SDS011;11708;50.570;8.532;2022-08-01T07:29:31;11.68;;;9.40;;
23080;SDS011;11708;50.570;8.532;2022-08-01T07:31:57;11.75;;;8.80;;
23080;SDS011;11708;50.570;8.532;2022-08-01T07:34:23;10.55;;;9.38;;
23080;SDS011;11708;50.570;8.532;2022-08-01T07:36:50;13.25;;;9.43;;
23080;SDS011;11708;50.570;8.532;2022-08-01T07:39:16;14.43;;;9.63;;
23080;SDS011;11708;50.570;8.532;2022-08-01T07:41:41;13.45;;;9.38;;
23080;SDS011;11708;50.570;8.532;2022-08-01T07:44:07;11.50;;;9.10;;
23080;SDS011;11708;50.570;8.532;2022-08-01T07:46:33;11.90;;;8.93;;
23080;SDS011;11708;50.570;8.532;2022-08-01T07:48:59;11.80;;;9.40;;
23080;SDS011;11708;50.570;8.532;2022-08-01T07:51:25;10.57;;;9.23;;
23080;SDS011;11708;50.570;8.532;2022-08-01T07:53:50;11.63;;;9.98;;
23080;SDS011;11708;50.570;8.532;2022-08-01T07:56:17;9.45;;;8.30;;
23080;SDS011;11708;50.570;8.532;2022-08-01T07:58:43;10.98;;;8.93;;
23080;SDS011;11708;50.570;8.532;2022-08-01T08:01:10;10.45;;;9.05;;
23080;SDS011;11708;50.570;8.532;2022-08-01T08:03:35;10.32;;;9.23;;
23080;SDS011;11708;50.570;8.532;2022-08-01T08:06:01;10.90;;;9.32;;
23080;SDS011;11708;50.570;8.532;2022-08-01T08:08:26;15.38;;;9.38;;
23080;SDS011;11708;50.570;8.532;2022-08-01T08:10:52;9.75;;;8.68;;
23080;SDS011;11708;50.570;8.532;2022-08-01T08:13:18;10.40;;;9.30;;
23080;SDS011;11708;50.570;8.532;2022-08-01T08:15:44;12.15;;;9.52;;
23080;SDS011;11708;50.570;8.532;2022-08-01T08:18:09;11.43;;;9.27;;
23080;SDS011;11708;50.570;8.532;2022-08-01T08:20:35;9.80;;;8.80;;
23080;SDS011;11708;50.570;8.532;2022-08-01T08:23:00;10.60;;;9.10;;
23080;SDS011;11708;50.570;8.532;2022-08-01T08:25:26;11.98;;;8.63;;
23080;SDS011;11708;50.570;8.532;2022-08-01T08:27:53;11.05;;;9.32;;
23080;SDS011;11708;50.570;8.532;2022-08-01T08:30:19;11.43;;;9.13;;
23080;SDS011;11708;50.570;8.532;2022-08-01T08:32:45;10.10;;;8.23;;
23080;SDS011;11708;50.570;8.532;2022-08-01T08:35:11;11.73;;;7.90;;
23080;SDS011;11708;50.570;8.532;2022-08-01T08:37:37;11.27;;;9.10;;
23080;SDS011;11708;50.570;8.532;2022-08-01T08:40:04;11.00;;;8.02;;
23080;SDS011;11708;50.570;8.532;2022-08-01T08:42:30;9.40;;;8.38;;
23080;SDS011;11708;50.570;8.532;2022-08-01T08:44:56;10.88;;;8.40;;
23080;SDS011;11708;50.570;8.532;2022-08-01T08:47:22;10.27;;;7.80;;
23080;SDS011;11708;50.570;8.532;2022-08-01T08:49:50;8.35;;;7.60;;
23080;SDS011;11708;50.570;8.532;2022-08-01T08:52:18;8.27;;;7.47;;
23080;SDS011;11708;50.570;8.532;2022-08-01T08:54:45;8.70;;;7.78;;
23080;SDS011;11708;50.570;8.532;2022-08-01T08:57:13;8.32;;;7.50;;
23080;SDS011;11708;50.570;8.532;2022-08-01T08:59:39;11.07;;;7.43;;
23080;SDS011;11708;50.570;8.532;2022-08-01T09:02:07;8.07;;;7.20;;
23080;SDS011;11708;50.570;8.532;2022-08-01T09:04:35;9.98;;;7.90;;
23080;SDS011;11708;50.570;8.532;2022-08-01T09:07:03;8.15;;;7.03;;
23080;SDS011;11708;50.570;8.532;2022-08-01T09:09:29;8.38;;;6.50;;
23080;SDS011;11708;50.570;8.532;2022-08-01T09:11:55;7.38;;;6.57;;
23080;SDS011;11708;50.570;8.532;2022-08-01T09:14:21;6.95;;;6.25;;
23080;SDS011;11708;50.570;8.532;2022-08-01T09:17:09;8.80;;;6.40;;
23080;SDS011;11708;50.570;8.532;2022-08-01T09:22:06;8.48;;;6.30;;
23080;SDS011;11708;50.570;8.532;2022-08-01T09:25:03;9.77;;;6.60;;
23080;SDS011;11708;50.570;8.532;2022-08-01T09:27:31;7.70;;;6.63;;
23080;SDS011;11708;50.570;8.532;2022-08-01T09:30:08;6.72;;;6.10;;
23080;SDS011;11708;50.570;8.532;2022-08-01T09:32:58;7.35;;;6.15;;
23080;SDS011;11708;50.570;8.532;2022-08-01T09:35:27;6.93;;;6.10;;
23080;SDS011;11708;50.570;8.532;2022-08-01T09:40:46;7.47;;;6.13;;
23080;SDS011;11708;50.570;8.532;2022-08-01T09:43:18;6.57;;;5.57;;
23080;SDS011;11708;50.570;8.532;2022-08-01T09:45:45;7.82;;;6.50;;
23080;SDS011;11708;50.570;8.532;2022-08-01T09:48:11;7.18;;;6.50;;
23080;SDS011;11708;50.570;8.532;2022-08-01T09:50:43;6.97;;;5.90;;
23080;SDS011;11708;50.570;8.532;2022-08-01T09:53:11;7.72;;;6.40;;
23080;SDS011;11708;50.570;8.532;2022-08-01T09:55:38;7.05;;;6.32;;
23080;SDS011;11708;50.570;8.532;2022-08-01T09:58:04;7.20;;;5.70;;
23080;SDS011;11708;50.570;8.532;2022-08-01T10:00:31;7.78;;;6.18;;
23080;SDS011;11708;50.570;8.532;2022-08-01T10:02:58;9.57;;;6.38;;
23080;SDS011;11708;50.570;8.532;2022-08-01T10:05:42;7.45;;;6.15;;
23080;SDS011;11708;50.570;8.532;2022-08-01T10:08:08;6.93;;;6.10;;
23080;SDS011;11708;50.570;8.532;2022-08-01T10:10:35;7.07;;;6.38;;
23080;SDS011;11708;50.570;8.532;2022-08-01T10:13:02;7.32;;;5.75;;
23080;SDS011;11708;50.570;8.532;2022-08-01T10:15:29;8.10;;;6.18;;
23080;SDS011;11708;50.570;8.532;2022-08-01T10:17:57;6.85;;;6.15;;
23080;SDS011;11708;50.570;8.532;2022-08-01T10:20:30;7.63;;;6.13;;
23080;SDS011;11708;50.570;8.532;2022-08-01T10:23:01;6.82;;;6.15;;
23080;SDS011;11708;50.570;8.532;2022-08-01T10:25:29;6.93;;;5.78;;
23080;SDS011;11708;50.570;8.532;2022-08-01T10:28:00;9.18;;;6.53;;
23080;SDS011;11708;50.570;8.532;2022-08-01T10:30:31;6.68;;;6.07;;
23080;SDS011;11708;50.570;8.532;2022-08-01T10:32:57;7.32;;;5.95;;
23080;SDS011;11708;50.570;8.532;2022-08-01T10:35:23;6.88;;;5.90;;
23080;SDS011;11708;50.570;8.532;2022-08-01T10:37:48;6.45;;;5.85;;
23080;SDS011;11708;50.570;8.532;2022-08-01T10:40:16;6.28;;;5.68;;
23080;SDS011;11708;50.570;8.532;2022-08-01T10:42:42;6.22;;;5.72;;
23080;SDS011;11708;50.570;8.532;2022-08-01T10:45:09;6.70;;;6.10;;
23080;SDS011;11708;50.570;8.532;2022-08-01T10:50:21;5.20;;;4.70;;
23080;SDS011;11708;50.570;8.532;2022-08-01T10:53:12;5.50;;;4.72;;
23080;SDS011;11708;50.570;8.532;2022-08-01T10:58:14;5.40;;;4.90;;
23080;SDS011;11708;50.570;8.532;2022-08-01T11:08:57;5.28;;;4.78;;
23080;SDS011;11708;50.570;8.532;2022-08-01T11:11:24;6.40;;;5.30;;
23080;SDS011;11708;50.570;8.532;2022-08-01T11:14:00;4.80;;;4.40;;
23080;SDS011;11708;50.570;8.532;2022-08-01T11:16:31;4.78;;;4.32;;
23080;SDS011;11708;50.570;8.532;2022-08-01T11:19:09;4.05;;;3.40;;
23080;SDS011;11708;50.570;8.532;2022-08-01T11:27:20;5.47;;;4.40;;
23080;SDS011;11708;50.570;8.532;2022-08-01T11:32:33;4.68;;;3.30;;
23080;SDS011;11708;50.570;8.532;2022-08-01T11:35:20;3.17;;;2.95;;
23080;SDS011;11708;50.570;8.532;2022-08-01T11:37:50;4.18;;;3.78;;
23080;SDS011;11708;50.570;8.532;2022-08-01T11:40:20;3.95;;;3.63;;
23080;SDS011;11708;50.570;8.532;2022-08-01T11:43:16;4.40;;;3.78;;
23080;SDS011;11708;50.570;8.532;2022-08-01T11:48:20;4.75;;;3.90;;
23080;SDS011;11708;50.570;8.532;2022-08-01T11:50:53;5.65;;;4.00;;
23080;SDS011;11708;50.570;8.532;2022-08-01T11:53:21;5.13;;;3.60;;
23080;SDS011;11708;50.570;8.532;2022-08-01T11:55:53;3.88;;;3.58;;
23080;SDS011;11708;50.570;8.532;2022-08-01T11:58:23;4.72;;;3.67;;
23080;SDS011;11708;50.570;8.532;2022-08-01T12:00:54;7.18;;;4.10;;
23080;SDS011;11708;50.570;8.532;2022-08-01T12:03:25;4.28;;;3.30;;
23080;SDS011;11708;50.570;8.532;2022-08-01T12:05:52;3.00;;;2.80;;
23080;SDS011;11708;50.570;8.532;2022-08-01T12:08:28;3.42;;;3.08;;
23080;SDS011;11708;50.570;8.532;2022-08-01T12:11:00;4.15;;;3.20;;
23080;SDS011;11708;50.570;8.532;2022-08-01T12:13:29;3.47;;;3.17;;
23080;SDS011;11708;50.570;8.532;2022-08-01T12:16:08;3.40;;;3.10;;
23080;SDS011;11708;50.570;8.532;2022-08-01T12:18:41;3.75;;;3.05;;
23080;SDS011;11708;50.570;8.532;2022-08-01T12:21:07;3.70;;;3.33;;
23080;SDS011;11708;50.570;8.532;2022-08-01T12:23:33;3.47;;;3.17;;
23080;SDS011;11708;50.570;8.532;2022-08-01T12:25:58;3.45;;;3.15;;
23080;SDS011;11708;50.570;8.532;2022-08-01T12:28:25;5.25;;;3.28;;
23080;SDS011;11708;50.570;8.532;2022-08-01T12:30:50;3.97;;;3.25;;
23080;SDS011;11708;50.570;8.532;2022-08-01T12:33:17;4.05;;;3.22;;
23080;SDS011;11708;50.570;8.532;2022-08-01T12:35:44;3.67;;;3.38;;
23080;SDS011;11708;50.570;8.532;2022-08-01T12:38:17;4.05;;;3.65;;
23080;SDS011;11708;50.570;8.532;2022-08-01T12:40:46;5.10;;;3.83;;
23080;SDS011;11708;50.570;8.532;2022-08-01T12:43:20;3.70;;;3.40;;
23080;SDS011;11708;50.570;8.532;2022-08-01T12:45:48;4.00;;;3.40;;
23080;SDS011;11708;50.570;8.532;2022-08-01T12:48:17;4.20;;;3.80;;
23080;SDS011;11708;50.570;8.532;2022-08-01T12:50:44;5.97;;;3.70;;
23080;SDS011;11708;50.570;8.532;2022-08-01T12:53:12;5.72;;;3.88;;
23080;SDS011;11708;50.570;8.532;2022-08-01T12:55:47;4.18;;;3.88;;
23080;SDS011;11708;50.570;8.532;2022-08-01T12:58:17;4.07;;;3.78;;
23080;SDS011;11708;50.570;8.532;2022-08-01T13:00:45;4.55;;;4.13;;
23080;SDS011;11708;50.570;8.532;2022-08-01T13:03:16;4.15;;;3.85;;
23080;SDS011;11708;50.570;8.532;2022-08-01T13:05:49;4.28;;;3.88;;
23080;SDS011;11708;50.570;8.532;2022-08-01T13:08:22;5.38;;;4.22;;
23080;SDS011;11708;50.570;8.532;2022-08-01T13:11:01;4.38;;;4.00;;
23080;SDS011;11708;50.570;8.532;2022-08-01T13:13:37;4.30;;;3.90;;
23080;SDS011;11708;50.570;8.532;2022-08-01T13:16:20;5.35;;;3.90;;
23080;SDS011;11708;50.570;8.532;2022-08-01T13:18:51;4.07;;;3.78;;
23080;SDS011;11708;50.570;8.532;2022-08-01T13:21:23;4.20;;;3.90;;
23080;SDS011;11708;50.570;8.532;2022-08-01T13:26:51;4.10;;;3.80;;
23080;SDS011;11708;50.570;8.532;2022-08-01T13:29:33;4.25;;;3.85;;
23080;SDS011;11708;50.570;8.532;2022-08-01T13:32:16;4.85;;;4.45;;
23080;SDS011;11708;50.570;8.532;2022-08-01T13:34:46;4.95;;;4.45;;
23080;SDS011;11708;50.570;8.532;2022-08-01T13:37:12;4.00;;;3.70;;
23080;SDS011;11708;50.570;8.532;2022-08-01T13:39:37;4.70;;;4.30;;
23080;SDS011;11708;50.570;8.532;2022-08-01T13:42:06;5.22;;;4.53;;
23080;SDS011;11708;50.570;8.532;2022-08-01T13:44:35;4.43;;;4.03;;
23080;SDS011;11708;50.570;8.532;2022-08-01T13:47:01;4.25;;;3.85;;
23080;SDS011;11708;50.570;8.532;2022-08-01T13:49:30;4.05;;;3.75;;
23080;SDS011;11708;50.570;8.532;2022-08-01T13:51:56;4.00;;;3.70;;
23080;SDS011;11708;50.570;8.532;2022-08-01T13:54:22;4.82;;;4.18;;
23080;SDS011;11708;50.570;8.532;2022-08-01T13:56:51;5.38;;;4.13;;
23080;SDS011;11708;50.570;8.532;2022-08-01T13:59:17;4.30;;;3.90;;
23080;SDS011;11708;50.570;8.532;2022-08-01T14:01:42;4.57;;;4.13;;
23080;SDS011;11708;50.570;8.532;2022-08-01T14:04:08;4.40;;;4.03;;
23080;SDS011;11708;50.570;8.532;2022-08-01T14:06:34;4.82;;;4.35;;
23080;SDS011;11708;50.570;8.532;2022-08-01T14:09:00;4.60;;;4.20;;
23080;SDS011;11708;50.570;8.532;2022-08-01T14:11:27;5.40;;;4.30;;
23080;SDS011;11708;50.570;8.532;2022-08-01T14:13:52;5.05;;;4.65;;
23080;SDS011;11708;50.570;8.532;2022-08-01T14:16:18;4.70;;;4.30;;
23080;SDS011;11708;50.570;8.532;2022-08-01T14:18:44;4.82;;;3.97;;
23080;SDS011;11708;50.570;8.532;2022-08-01T14:21:10;4.80;;;4.40;;
23080;SDS011;11708;50.570;8.532;2022-08-01T14:23:36;4.65;;;4.20;;
23080;SDS011;11708;50.570;8.532;2022-08-01T14:26:01;4.50;;;4.10;;
23080;SDS011;11708;50.570;8.532;2022-08-01T14:28:27;4.15;;;3.75;;
23080;SDS011;11708;50.570;8.532;2022-08-01T14:30:56;3.97;;;3.67;;
23080;SDS011;11708;50.570;8.532;2022-08-01T14:33:22;3.65;;;3.35;;
23080;SDS011;11708;50.570;8.532;2022-08-01T14:35:48;3.55;;;3.25;;
23080;SDS011;11708;50.570;8.532;2022-08-01T14:38:14;3.70;;;3.33;;
23080;SDS011;11708;50.570;8.532;2022-08-01T14:40:39;3.63;;;3.30;;
23080;SDS011;11708;50.570;8.532;2022-08-01T14:43:05;4.10;;;3.80;;
23080;SDS011;11708;50.570;8.532;2022-08-01T14:45:31;4.20;;;3.35;;
23080;SDS011;11708;50.570;8.532;2022-08-01T14:47:57;4.25;;;3.90;;
23080;SDS011;11708;50.570;8.532;2022-08-01T14:50:23;4.28;;;3.90;;
23080;SDS011;11708;50.570;8.532;2022-08-01T14:52:51;4.25;;;3.85;;
23080;SDS011;11708;50.570;8.532;2022-08-01T14:55:17;5.28;;;4.60;;
23080;SDS011;11708;50.570;8.532;2022-08-01T14:57:43;4.55;;;4.15;;
23080;SDS011;11708;50.570;8.532;2022-08-01T15:00:09;4.68;;;4.15;;
23080;SDS011;11708;50.570;8.532;2022-08-01T15:02:37;4.25;;;3.85;;
23080;SDS011;11708;50.570;8.532;2022-08-01T15:05:04;4.22;;;3.88;;
23080;SDS011;11708;50.570;8.532;2022-08-01T15:07:30;5.72;;;4.20;;
23080;SDS011;11708;50.570;8.532;2022-08-01T15:09:56;4.25;;;3.80;;
23080;SDS011;11708;50.570;8.532;2022-08-01T15:12:21;4.47;;;4.18;;
23080;SDS011;11708;50.570;8.532;2022-08-01T15:14:47;4.25;;;3.85;;
23080;SDS011;11708;50.570;8.532;2022-08-01T15:17:13;4.13;;;3.72;;
23080;SDS011;11708;50.570;8.532;2022-08-01T15:19:39;4.72;;;4.32;;
23080;SDS011;11708;50.570;8.532;2022-08-01T15:22:05;4.38;;;3.95;;
23080;SDS011;11708;50.570;8.532;2022-08-01T15:24:31;4.93;;;4.10;;
23080;SDS011;11708;50.570;8.532;2022-08-01T15:26:57;4.63;;;4.22;;
23080;SDS011;11708;50.570;8.532;2022-08-01T15:29:22;5.30;;;4.80;;
23080;SDS011;11708;50.570;8.532;2022-08-01T15:31:48;4.38;;;3.97;;